Time;durP1;ratioP1;P1;durP2;ratioP2;P2;SDS_P1;SDS_P2;PMS_P1;PMS_P2;Temp;Humidity;BMP_temperature;BMP_pressure;BME280_temperature;BME280_humidity;BME280_pressure;Samples;Min_cycle;Max_cycle;Signal;HPM_P1;HPM_P2
2021/05/03 00:01:20;;;;;;;15.20;11.77;;;;;;;;;;770926;179;1021655;-73
2021/05/03 00:03:46;;;;;;;16.00;11.13;;;;;;;;;;773948;180;616630;-72
2021/05/03 00:06:12;;;;;;;14.40;10.47;;;;;;;;;;769336;179;874451;-72
2021/05/03 00:08:38;;;;;;;14.17;11.53;;;;;;;;;;783225;177;627368;-73
2021/05/03 00:11:04;;;;;;;16.20;12.10;;;;;;;;;;778106;178;627899;-72
2021/05/03 00:13:30;;;;;;;30.80;12.20;;;;;;;;;;771762;180;918692;-72
2021/05/03 00:15:55;;;;;;;15.47;11.07;;;;;;;;;;775835;177;917775;-73
2021/05/03 00:18:21;;;;;;;18.12;12.82;;;;;;;;;;772774;180;919933;-73
2021/05/03 00:20:47;;;;;;;14.52;11.43;;;;;;;;;;769371;179;1094700;-72
2021/05/03 00:23:13;;;;;;;16.37;11.57;;;;;;;;;;778848;179;924296;-72
2021/05/03 00:25:39;;;;;;;18.30;12.73;;;;;;;;;;776102;178;918111;-72
2021/05/03 00:28:05;;;;;;;22.93;12.80;;;;;;;;;;757802;181;923834;-71
2021/05/03 00:30:30;;;;;;;15.13;10.83;;;;;;;;;;775877;180;919171;-72
2021/05/03 00:32:56;;;;;;;16.70;12.90;;;;;;;;;;772032;178;916035;-71
2021/05/03 00:35:22;;;;;;;17.95;12.45;;;;;;;;;;774029;178;913842;-72
2021/05/03 00:37:48;;;;;;;17.67;12.47;;;;;;;;;;767616;180;916112;-71
2021/05/03 00:40:14;;;;;;;16.00;12.63;;;;;;;;;;770881;180;915495;-71
2021/05/03 00:42:43;;;;;;;17.50;12.17;;;;;;;;;;771521;180;917015;-72
2021/05/03 00:45:07;;;;;;;18.73;12.82;;;;;;;;;;770268;180;1234091;-71
2021/05/03 00:47:32;;;;;;;19.67;12.30;;;;;;;;;;778403;181;864297;-71
2021/05/03 00:49:58;;;;;;;19.20;13.70;;;;;;;;;;771148;178;919853;-72
2021/05/03 00:52:25;;;;;;;16.00;12.00;;;;;;;;;;768461;180;920710;-73
2021/05/03 00:54:50;;;;;;;18.10;13.23;;;;;;;;;;779372;180;920382;-71
2021/05/03 00:57:16;;;;;;;19.33;14.50;;;;;;;;;;770721;178;919498;-70
2021/05/03 00:59:42;;;;;;;20.80;15.07;;;;;;;;;;769819;178;915990;-71
2021/05/03 01:02:08;;;;;;;20.60;13.60;;;;;;;;;;772878;180;914387;-71
2021/05/03 01:04:33;;;;;;;20.80;15.60;;;;;;;;;;766779;180;915246;-71
2021/05/03 01:06:59;;;;;;;18.50;13.40;;;;;;;;;;775107;180;919615;-71
2021/05/03 01:09:25;;;;;;;20.07;13.77;;;;;;;;;;773683;178;919624;-71
2021/05/03 01:11:51;;;;;;;19.77;15.23;;;;;;;;;;779678;180;919569;-70
2021/05/03 01:14:17;;;;;;;21.00;14.07;;;;;;;;;;770470;179;918480;-71
2021/05/03 01:16:43;;;;;;;24.47;15.57;;;;;;;;;;771795;180;1032509;-70
2021/05/03 01:19:09;;;;;;;19.48;14.75;;;;;;;;;;776079;179;920189;-70
2021/05/03 01:21:34;;;;;;;25.30;15.33;;;;;;;;;;778512;178;919047;-70
2021/05/03 01:24:00;;;;;;;19.17;14.93;;;;;;;;;;777200;177;809559;-70
2021/05/03 01:26:26;;;;;;;22.93;14.93;;;;;;;;;;778124;177;919003;-70
2021/05/03 01:28:52;;;;;;;22.33;15.50;;;;;;;;;;768989;180;1236700;-70
2021/05/03 01:31:18;;;;;;;21.10;15.20;;;;;;;;;;775691;180;919259;-70
2021/05/03 01:33:44;;;;;;;24.30;16.60;;;;;;;;;;769479;181;919477;-70
2021/05/03 01:36:09;;;;;;;21.80;16.87;;;;;;;;;;780570;178;872497;-70
2021/05/03 01:38:35;;;;;;;23.53;16.50;;;;;;;;;;772689;180;918531;-71
2021/05/03 01:41:01;;;;;;;25.23;17.20;;;;;;;;;;769639;180;919166;-70
2021/05/03 01:43:28;;;;;;;25.10;17.80;;;;;;;;;;774143;180;917397;-70
2021/05/03 01:45:53;;;;;;;23.73;18.27;;;;;;;;;;771100;180;918318;-72
2021/05/03 01:48:19;;;;;;;25.27;19.20;;;;;;;;;;769549;180;918826;-70
2021/05/03 01:50:45;;;;;;;25.10;17.40;;;;;;;;;;780680;180;621339;-70
2021/05/03 01:53:11;;;;;;;24.30;17.70;;;;;;;;;;774493;179;1589148;-70
2021/05/03 01:55:37;;;;;;;27.27;18.53;;;;;;;;;;776525;178;613813;-70
2021/05/03 01:58:03;;;;;;;23.43;17.73;;;;;;;;;;774005;181;919446;-70
2021/05/03 02:00:29;;;;;;;26.00;17.83;;;;;;;;;;771769;178;614961;-70
2021/05/03 02:02:55;;;;;;;23.77;17.40;;;;;;;;;;772315;180;1022064;-69
2021/05/03 02:05:21;;;;;;;24.20;17.20;;;;;;;;;;770718;178;918551;-69
2021/05/03 02:07:46;;;;;;;26.53;18.20;;;;;;;;;;778810;178;916165;-70
2021/05/03 02:10:12;;;;;;;22.00;16.77;;;;;;;;;;774521;180;624649;-70
2021/05/03 02:12:38;;;;;;;24.13;17.80;;;;;;;;;;770414;178;919527;-71
2021/05/03 02:15:06;;;;;;;24.30;17.23;;;;;;;;;;772416;180;919128;-72
2021/05/03 02:17:32;;;;;;;19.73;15.23;;;;;;;;;;771019;180;1277790;-72
2021/05/03 02:19:58;;;;;;;21.23;16.20;;;;;;;;;;777782;180;614820;-70
2021/05/03 02:22:24;;;;;;;24.27;18.33;;;;;;;;;;771472;180;636003;-70
2021/05/03 02:24:50;;;;;;;23.33;16.83;;;;;;;;;;765852;184;918923;-70
2021/05/03 02:27:15;;;;;;;22.20;15.10;;;;;;;;;;759897;181;919094;-70
2021/05/03 02:29:41;;;;;;;23.67;15.20;;;;;;;;;;769338;180;918869;-72
2021/05/03 02:32:07;;;;;;;24.47;17.70;;;;;;;;;;770873;180;918818;-71
2021/05/03 02:34:33;;;;;;;24.15;17.45;;;;;;;;;;765470;181;920209;-72
2021/05/03 02:36:59;;;;;;;21.30;16.73;;;;;;;;;;765608;180;1924745;-71
2021/05/03 02:39:25;;;;;;;25.87;18.50;;;;;;;;;;777618;180;920368;-71
2021/05/03 02:41:50;;;;;;;23.83;17.33;;;;;;;;;;771771;179;920557;-70
2021/05/03 02:44:16;;;;;;;21.27;17.13;;;;;;;;;;771847;180;919261;-69
2021/05/03 02:46:42;;;;;;;24.97;18.20;;;;;;;;;;773240;180;920313;-70
2021/05/03 02:49:08;;;;;;;27.30;17.63;;;;;;;;;;771707;180;922475;-69
2021/05/03 02:51:36;;;;;;;24.65;17.95;;;;;;;;;;771011;178;917707;-71
2021/05/03 02:54:00;;;;;;;26.77;19.13;;;;;;;;;;771964;177;914472;-70
2021/05/03 02:56:26;;;;;;;25.83;17.97;;;;;;;;;;779659;178;913552;-70
2021/05/03 02:58:52;;;;;;;23.80;17.60;;;;;;;;;;771544;178;913617;-70
2021/05/03 03:01:18;;;;;;;27.37;20.07;;;;;;;;;;773238;180;918832;-70
2021/05/03 03:03:44;;;;;;;27.40;19.40;;;;;;;;;;777781;178;918721;-70
2021/05/03 03:06:10;;;;;;;32.10;19.23;;;;;;;;;;772112;178;919250;-70
2021/05/03 03:08:35;;;;;;;29.10;20.10;;;;;;;;;;767541;179;918952;-70
2021/05/03 03:11:01;;;;;;;25.80;18.77;;;;;;;;;;779941;180;626868;-70
2021/05/03 03:13:27;;;;;;;23.50;17.77;;;;;;;;;;769986;178;919601;-70
2021/05/03 03:15:53;;;;;;;25.50;16.87;;;;;;;;;;768959;181;918790;-72
2021/05/03 03:18:20;;;;;;;23.48;15.77;;;;;;;;;;770157;178;918908;-70
2021/05/03 03:20:45;;;;;;;32.47;20.80;;;;;;;;;;771741;180;918253;-72
2021/05/03 03:23:11;;;;;;;24.70;17.67;;;;;;;;;;764786;181;1111393;-70
2021/05/03 03:25:36;;;;;;;22.83;15.73;;;;;;;;;;777214;179;620067;-71
2021/05/03 03:28:02;;;;;;;21.77;15.90;;;;;;;;;;775969;177;920685;-71
2021/05/03 03:30:28;;;;;;;27.50;16.60;;;;;;;;;;772671;180;918640;-71
2021/05/03 03:32:54;;;;;;;21.40;15.77;;;;;;;;;;771860;180;918807;-70
2021/05/03 03:35:20;;;;;;;24.13;16.00;;;;;;;;;;778240;180;919030;-71
2021/05/03 03:37:46;;;;;;;21.73;16.77;;;;;;;;;;774939;181;919306;-70
2021/05/03 03:40:12;;;;;;;24.63;16.03;;;;;;;;;;770278;181;919676;-71
2021/05/03 03:42:38;;;;;;;21.25;14.40;;;;;;;;;;775399;179;919283;-70
2021/05/03 03:45:04;;;;;;;23.33;15.43;;;;;;;;;;759382;183;1016829;-70
2021/05/03 03:47:30;;;;;;;25.75;15.93;;;;;;;;;;769915;177;918963;-70
2021/05/03 03:49:57;;;;;;;23.10;15.73;;;;;;;;;;771322;178;919280;-69
2021/05/03 03:52:24;;;;;;;26.60;17.07;;;;;;;;;;777654;180;921235;-70
2021/05/03 03:54:49;;;;;;;21.57;14.80;;;;;;;;;;769724;180;919029;-70
2021/05/03 03:57:14;;;;;;;20.13;14.30;;;;;;;;;;773396;180;973235;-70
2021/05/03 03:59:43;;;;;;;20.13;14.43;;;;;;;;;;772806;178;929861;-70
2021/05/03 04:02:06;;;;;;;24.00;14.73;;;;;;;;;;762039;182;919474;-71
2021/05/03 04:04:33;;;;;;;22.77;15.07;;;;;;;;;;729200;185;3922316;-71
2021/05/03 04:07:09;;;;;;;20.05;14.00;;;;;;;;;;758510;185;629797;-71
2021/05/03 04:09:35;;;;;;;23.27;14.23;;;;;;;;;;753128;185;618244;-70
2021/05/03 04:12:11;;;;;;;21.93;13.43;;;;;;;;;;744497;185;918392;-71
2021/05/03 04:23:03;;;;;;;21.90;13.33;;;;;;;;;;739526;186;918296;-71
2021/05/03 04:25:08;;;;;;;20.40;12.40;;;;;;;;;;748221;187;1022126;-71
2021/05/03 04:27:21;;;;;;;21.70;12.57;;;;;;;;;;746399;185;630193;-72
2021/05/03 04:29:47;;;;;;;15.10;11.13;;;;;;;;;;747476;184;619402;-71
2021/05/03 04:32:13;;;;;;;16.67;10.47;;;;;;;;;;750010;185;709346;-71
2021/05/03 04:34:39;;;;;;;19.23;11.77;;;;;;;;;;744608;187;919741;-73
2021/05/03 04:37:05;;;;;;;13.30;9.63;;;;;;;;;;742190;187;918300;-72
2021/05/03 04:39:30;;;;;;;15.80;10.73;;;;;;;;;;744896;187;917004;-72
2021/05/03 04:41:56;;;;;;;14.17;10.30;;;;;;;;;;745573;187;918975;-72
2021/05/03 04:44:22;;;;;;;16.03;11.47;;;;;;;;;;742092;186;921986;-71
2021/05/03 04:46:48;;;;;;;14.13;11.23;;;;;;;;;;741428;186;1013104;-71
2021/05/03 04:49:14;;;;;;;15.37;10.27;;;;;;;;;;747338;186;919721;-72
2021/05/03 04:51:40;;;;;;;11.60;8.83;;;;;;;;;;742825;186;970348;-72
2021/05/03 04:54:06;;;;;;;14.47;10.00;;;;;;;;;;745841;184;919030;-72
2021/05/03 04:56:32;;;;;;;11.33;7.20;;;;;;;;;;751168;184;914749;-72
2021/05/03 04:58:57;;;;;;;13.17;9.30;;;;;;;;;;746357;185;925297;-72
2021/05/03 05:01:23;;;;;;;11.93;8.90;;;;;;;;;;746625;185;915211;-73
2021/05/03 05:03:49;;;;;;;12.60;9.57;;;;;;;;;;742790;184;920575;-71
2021/05/03 05:06:15;;;;;;;11.80;8.37;;;;;;;;;;748307;185;916358;-73
2021/05/03 05:08:41;;;;;;;10.43;7.73;;;;;;;;;;744400;185;915387;-72
2021/05/03 05:11:07;;;;;;;10.80;8.03;;;;;;;;;;743031;187;915777;-71
2021/05/03 05:13:33;;;;;;;10.63;7.00;;;;;;;;;;749267;185;914302;-72
2021/05/03 05:15:58;;;;;;;12.43;8.00;;;;;;;;;;744136;186;916447;-72
2021/05/03 05:18:24;;;;;;;10.00;7.63;;;;;;;;;;741081;186;914941;-71
2021/05/03 05:20:50;;;;;;;10.43;7.63;;;;;;;;;;748339;187;915806;-74
2021/05/03 05:23:16;;;;;;;9.83;7.53;;;;;;;;;;747382;186;631445;-72
2021/05/03 05:25:42;;;;;;;11.53;7.80;;;;;;;;;;748665;187;625703;-72
2021/05/03 05:28:08;;;;;;;7.70;5.63;;;;;;;;;;749393;185;618665;-72
2021/05/03 05:30:33;;;;;;;9.80;6.77;;;;;;;;;;747470;186;626497;-74
2021/05/03 05:32:59;;;;;;;9.55;6.68;;;;;;;;;;745310;185;627342;-73
2021/05/03 05:35:25;;;;;;;10.53;6.10;;;;;;;;;;747419;186;629172;-71
2021/05/03 05:37:51;;;;;;;9.20;5.90;;;;;;;;;;751154;186;627154;-72
2021/05/03 05:40:17;;;;;;;8.63;6.00;;;;;;;;;;745464;184;918875;-71
2021/05/03 05:42:43;;;;;;;7.53;5.87;;;;;;;;;;742452;187;919032;-71
2021/05/03 05:45:09;;;;;;;7.23;6.00;;;;;;;;;;747452;186;919168;-71
2021/05/03 05:47:35;;;;;;;9.70;7.10;;;;;;;;;;747784;185;918846;-74
2021/05/03 05:50:01;;;;;;;7.13;5.00;;;;;;;;;;742796;186;1124530;-72
2021/05/03 05:52:27;;;;;;;7.90;5.07;;;;;;;;;;751417;186;871056;-73
2021/05/03 05:54:52;;;;;;;8.77;6.00;;;;;;;;;;741998;185;916302;-72
2021/05/03 05:57:18;;;;;;;9.73;5.87;;;;;;;;;;742709;185;914289;-73
2021/05/03 05:59:44;;;;;;;7.23;4.63;;;;;;;;;;743309;185;919384;-73
2021/05/03 06:02:10;;;;;;;6.70;5.77;;;;;;;;;;746227;186;914817;-71
2021/05/03 06:04:36;;;;;;;6.70;5.78;;;;;;;;;;742281;184;951305;-72
2021/05/03 06:07:02;;;;;;;7.30;5.40;;;;;;;;;;744446;186;921226;-72
2021/05/03 06:09:27;;;;;;;7.77;5.63;;;;;;;;;;748748;185;924101;-73
2021/05/03 06:11:53;;;;;;;12.53;6.20;;;;;;;;;;747447;185;925757;-72
2021/05/03 06:14:19;;;;;;;9.73;6.37;;;;;;;;;;743824;185;920027;-72
2021/05/03 06:16:45;;;;;;;7.83;6.00;;;;;;;;;;748548;185;900098;-71
2021/05/03 06:19:11;;;;;;;9.37;5.90;;;;;;;;;;747559;186;914904;-73
2021/05/03 06:21:37;;;;;;;10.33;5.47;;;;;;;;;;736195;186;679435;-72
2021/05/03 06:24:03;;;;;;;6.80;5.43;;;;;;;;;;747912;186;918834;-72
2021/05/03 06:26:29;;;;;;;12.30;6.70;;;;;;;;;;745018;185;918582;-72
2021/05/03 06:28:55;;;;;;;7.13;4.83;;;;;;;;;;743619;187;984267;-71
2021/05/03 06:31:21;;;;;;;10.57;6.20;;;;;;;;;;743766;186;888845;-75
2021/05/03 06:33:46;;;;;;;7.67;5.53;;;;;;;;;;749310;185;897882;-71
2021/05/03 06:36:12;;;;;;;7.53;5.80;;;;;;;;;;744167;186;921984;-73
2021/05/03 06:38:38;;;;;;;13.93;5.27;;;;;;;;;;743979;186;918410;-74
2021/05/03 06:41:04;;;;;;;11.20;5.37;;;;;;;;;;742073;185;1866312;-72
2021/05/03 06:43:30;;;;;;;9.63;5.93;;;;;;;;;;743253;184;918418;-74
2021/05/03 06:45:58;;;;;;;8.50;5.30;;;;;;;;;;741059;186;920505;-73
2021/05/03 06:48:23;;;;;;;6.47;4.83;;;;;;;;;;747213;186;919334;-75
2021/05/03 06:50:49;;;;;;;8.60;5.93;;;;;;;;;;742081;186;1015048;-73
2021/05/03 06:53:15;;;;;;;6.10;5.13;;;;;;;;;;742506;186;919251;-74
2021/05/03 06:55:41;;;;;;;8.30;6.23;;;;;;;;;;746196;185;919654;-72
2021/05/03 06:58:07;;;;;;;7.77;5.47;;;;;;;;;;747536;186;918917;-72
2021/05/03 07:00:38;;;;;;;6.57;5.37;;;;;;;;;;745101;185;974607;-73
2021/05/03 07:02:59;;;;;;;7.37;6.23;;;;;;;;;;743641;185;949285;-76
2021/05/03 07:05:27;;;;;;;9.03;5.80;;;;;;;;;;748655;186;916015;-74
2021/05/03 07:07:50;;;;;;;8.60;6.33;;;;;;;;;;744260;185;912447;-72
2021/05/03 07:10:16;;;;;;;8.00;5.67;;;;;;;;;;744058;187;916011;-73
2021/05/03 07:12:43;;;;;;;7.30;5.93;;;;;;;;;;747299;185;914617;-74
2021/05/03 07:15:08;;;;;;;6.97;4.07;;;;;;;;;;744498;186;919500;-73
2021/05/03 07:17:34;;;;;;;7.20;5.23;;;;;;;;;;744910;184;1423805;-73
2021/05/03 07:20:00;;;;;;;8.30;6.13;;;;;;;;;;747988;185;919490;-73
2021/05/03 07:22:26;;;;;;;5.30;4.40;;;;;;;;;;751173;186;922151;-75
2021/05/03 07:24:52;;;;;;;7.30;5.00;;;;;;;;;;744197;185;919934;-72
2021/05/03 07:27:18;;;;;;;10.60;5.62;;;;;;;;;;743446;185;1048468;-74
2021/05/03 07:29:44;;;;;;;6.50;4.60;;;;;;;;;;752719;184;934207;-71
2021/05/03 07:32:09;;;;;;;8.90;5.20;;;;;;;;;;744785;185;918894;-74
2021/05/03 07:34:35;;;;;;;7.83;6.97;;;;;;;;;;744617;186;918447;-72
2021/05/03 07:37:03;;;;;;;8.07;5.23;;;;;;;;;;750412;188;919192;-72
2021/05/03 07:39:27;;;;;;;9.73;6.07;;;;;;;;;;749743;185;633507;-73
2021/05/03 07:41:54;;;;;;;9.00;6.53;;;;;;;;;;749554;186;623663;-73
2021/05/03 07:44:21;;;;;;;8.87;5.73;;;;;;;;;;749962;185;621067;-73
2021/05/03 07:46:45;;;;;;;8.40;5.83;;;;;;;;;;755503;184;628518;-72
2021/05/03 07:49:11;;;;;;;7.00;4.73;;;;;;;;;;746737;186;656404;-71
2021/05/03 07:51:37;;;;;;;6.43;5.67;;;;;;;;;;747821;187;622011;-72
2021/05/03 07:54:03;;;;;;;6.00;4.70;;;;;;;;;;749369;186;618531;-72
2021/05/03 07:56:31;;;;;;;8.00;4.93;;;;;;;;;;742358;186;1010866;-72
2021/05/03 07:58:55;;;;;;;6.23;4.70;;;;;;;;;;741359;186;917974;-72
2021/05/03 08:01:21;;;;;;;6.40;5.80;;;;;;;;;;748463;186;913439;-70
2021/05/03 08:03:47;;;;;;;11.60;6.17;;;;;;;;;;744333;184;919967;-73
2021/05/03 08:06:13;;;;;;;6.90;6.20;;;;;;;;;;743869;185;920592;-73
2021/05/03 08:08:39;;;;;;;7.63;5.53;;;;;;;;;;748878;185;919585;-73
2021/05/03 08:11:05;;;;;;;6.90;5.90;;;;;;;;;;743074;184;919676;-72
2021/05/03 08:13:31;;;;;;;7.97;6.00;;;;;;;;;;744664;186;915791;-72
2021/05/03 08:15:59;;;;;;;6.40;5.20;;;;;;;;;;741853;187;984855;-72
2021/05/03 08:18:22;;;;;;;7.50;4.93;;;;;;;;;;747232;186;916134;-73
2021/05/03 08:20:48;;;;;;;7.67;6.70;;;;;;;;;;742856;185;915487;-74
2021/05/03 08:23:19;;;;;;;4.70;3.77;;;;;;;;;;744149;186;916248;-73
2021/05/03 08:25:40;;;;;;;15.03;13.40;;;;;;;;;;749372;187;630222;-71
2021/05/03 08:28:06;;;;;;;8.63;4.40;;;;;;;;;;749177;184;915283;-73
2021/05/03 08:30:32;;;;;;;4.00;3.30;;;;;;;;;;743802;186;900052;-74
2021/05/03 08:32:57;;;;;;;4.50;4.10;;;;;;;;;;751034;184;914968;-72
2021/05/03 08:35:23;;;;;;;7.63;4.90;;;;;;;;;;744326;185;921342;-73
2021/05/03 08:37:49;;;;;;;5.03;4.13;;;;;;;;;;744288;185;1017958;-73
2021/05/03 08:40:15;;;;;;;5.37;4.00;;;;;;;;;;748101;185;893597;-72
2021/05/03 08:42:43;;;;;;;5.80;4.40;;;;;;;;;;757464;184;631235;-74
2021/05/03 08:45:11;;;;;;;5.17;3.87;;;;;;;;;;748603;186;627913;-74
2021/05/03 08:47:39;;;;;;;6.30;4.67;;;;;;;;;;746891;185;915266;-75
2021/05/03 08:50:09;;;;;;;5.23;4.63;;;;;;;;;;751735;185;813360;-75
2021/05/03 08:52:42;;;;;;;4.77;4.10;;;;;;;;;;747468;186;862970;-75
2021/05/03 08:55:03;;;;;;;5.20;4.30;;;;;;;;;;750830;185;621595;-75
2021/05/03 08:57:29;;;;;;;5.27;3.93;;;;;;;;;;742596;185;717040;-72
2021/05/03 08:59:55;;;;;;;6.80;4.00;;;;;;;;;;752172;185;611265;-73
2021/05/03 09:02:21;;;;;;;6.10;3.57;;;;;;;;;;742753;185;921208;-73
2021/05/03 09:04:47;;;;;;;7.20;4.40;;;;;;;;;;743201;185;917496;-74
2021/05/03 09:07:13;;;;;;;9.23;4.97;;;;;;;;;;748157;187;918085;-75
2021/05/03 09:09:39;;;;;;;6.07;4.33;;;;;;;;;;744459;185;1121110;-75
2021/05/03 09:12:06;;;;;;;6.20;4.70;;;;;;;;;;744560;187;913773;-74
2021/05/03 09:14:32;;;;;;;5.90;4.83;;;;;;;;;;744492;186;918670;-72
2021/05/03 09:16:58;;;;;;;5.80;4.70;;;;;;;;;;736636;184;1681966;-73
2021/05/03 09:19:24;;;;;;;7.67;4.37;;;;;;;;;;743911;186;919836;-75
2021/05/03 09:21:50;;;;;;;11.67;4.90;;;;;;;;;;742450;186;919171;-73
2021/05/03 09:24:21;;;;;;;7.90;4.70;;;;;;;;;;748534;184;920701;-75
2021/05/03 09:26:47;;;;;;;13.77;5.27;;;;;;;;;;745929;187;920187;-73
2021/05/03 09:29:17;;;;;;;10.10;4.97;;;;;;;;;;744908;186;918648;-75
2021/05/03 09:31:43;;;;;;;7.77;5.10;;;;;;;;;;745821;185;918908;-73
2021/05/03 09:34:09;;;;;;;11.67;5.03;;;;;;;;;;748798;187;633588;-72
2021/05/03 09:36:35;;;;;;;6.80;6.10;;;;;;;;;;747453;184;629613;-74
2021/05/03 09:39:01;;;;;;;7.73;5.37;;;;;;;;;;741954;186;938867;-73
2021/05/03 09:41:27;;;;;;;6.23;5.00;;;;;;;;;;750035;185;942247;-72
2021/05/03 09:43:53;;;;;;;4.73;3.80;;;;;;;;;;744859;184;1104145;-74
2021/05/03 09:46:24;;;;;;;5.40;3.80;;;;;;;;;;743810;185;919035;-75
2021/05/03 09:48:50;;;;;;;6.37;4.60;;;;;;;;;;743130;185;914179;-74
2021/05/03 09:51:22;;;;;;;5.90;4.00;;;;;;;;;;750423;185;919765;-74
2021/05/03 09:53:50;;;;;;;5.10;4.50;;;;;;;;;;743475;186;915498;-72
2021/05/03 09:56:16;;;;;;;7.00;4.27;;;;;;;;;;746031;185;922611;-74
2021/05/03 09:58:43;;;;;;;5.97;4.15;;;;;;;;;;747516;184;917248;-72
2021/05/03 10:01:09;;;;;;;7.43;5.00;;;;;;;;;;747498;184;919721;-74
2021/05/03 10:03:43;;;;;;;6.40;5.28;;;;;;;;;;740537;186;1414270;-73
2021/05/03 10:06:06;;;;;;;4.37;3.97;;;;;;;;;;742194;186;922036;-73
2021/05/03 10:08:32;;;;;;;4.23;3.83;;;;;;;;;;748904;184;916534;-74
2021/05/03 10:11:02;;;;;;;8.00;4.47;;;;;;;;;;745491;186;918694;-75
2021/05/03 10:13:23;;;;;;;6.82;4.70;;;;;;;;;;745929;184;918704;-75
2021/05/03 10:15:49;;;;;;;4.20;3.67;;;;;;;;;;747173;186;918805;-74
2021/05/03 10:18:15;;;;;;;6.05;4.18;;;;;;;;;;744925;184;919712;-75
2021/05/03 10:20:41;;;;;;;4.93;4.40;;;;;;;;;;741918;185;918505;-73
2021/05/03 10:23:07;;;;;;;8.02;5.10;;;;;;;;;;742314;185;919422;-74
2021/05/03 10:25:33;;;;;;;6.57;4.47;;;;;;;;;;754419;182;816348;-74
2021/05/03 10:27:58;;;;;;;5.53;4.37;;;;;;;;;;743571;186;919209;-74
2021/05/03 10:30:24;;;;;;;5.70;4.97;;;;;;;;;;746767;184;616999;-74
2021/05/03 10:32:56;;;;;;;6.63;4.30;;;;;;;;;;750978;187;693692;-74
2021/05/03 10:35:32;;;;;;;6.27;4.47;;;;;;;;;;741507;186;916937;-75
2021/05/03 10:37:58;;;;;;;7.53;4.47;;;;;;;;;;743858;187;919623;-75
2021/05/03 10:40:39;;;;;;;6.67;3.57;;;;;;;;;;745937;184;918731;-74
2021/05/03 10:43:14;;;;;;;4.60;3.72;;;;;;;;;;749080;184;1000129;-76
2021/05/03 10:45:47;;;;;;;5.03;4.10;;;;;;;;;;743605;184;915555;-73
2021/05/03 10:48:14;;;;;;;5.67;4.67;;;;;;;;;;741154;188;916250;-75
2021/05/03 10:50:44;;;;;;;5.23;4.47;;;;;;;;;;744626;185;1018667;-73
2021/05/03 10:53:12;;;;;;;6.00;3.80;;;;;;;;;;744957;186;915480;-74
2021/05/03 10:55:44;;;;;;;5.80;3.53;;;;;;;;;;747892;186;634900;-74
2021/05/03 10:58:10;;;;;;;5.93;4.30;;;;;;;;;;749670;185;923872;-74
2021/05/03 11:00:36;;;;;;;5.83;4.83;;;;;;;;;;747666;186;919585;-74
2021/05/03 11:03:02;;;;;;;5.60;4.00;;;;;;;;;;745190;186;920043;-75
2021/05/03 11:05:29;;;;;;;4.97;3.80;;;;;;;;;;750357;186;924563;-73
2021/05/03 11:08:00;;;;;;;5.23;4.17;;;;;;;;;;744766;185;945982;-74
2021/05/03 11:10:32;;;;;;;7.18;4.82;;;;;;;;;;742914;187;919271;-74
2021/05/03 11:12:58;;;;;;;5.80;4.70;;;;;;;;;;744485;184;921426;-75
2021/05/03 11:15:26;;;;;;;7.97;5.10;;;;;;;;;;745614;186;921099;-72
2021/05/03 11:17:56;;;;;;;6.53;4.53;;;;;;;;;;744877;186;814946;-76
2021/05/03 11:20:22;;;;;;;8.50;4.70;;;;;;;;;;741778;186;919017;-74
2021/05/03 11:23:03;;;;;;;5.90;4.60;;;;;;;;;;741755;186;918775;-74
2021/05/03 11:25:24;;;;;;;6.73;5.33;;;;;;;;;;745856;185;920579;-72
2021/05/03 11:27:54;;;;;;;8.67;5.20;;;;;;;;;;751578;185;916518;-73
2021/05/03 11:30:19;;;;;;;5.87;5.20;;;;;;;;;;748020;185;998526;-75
2021/05/03 11:32:41;;;;;;;6.87;5.18;;;;;;;;;;745653;185;700375;-74
2021/05/03 11:35:18;;;;;;;4.67;4.10;;;;;;;;;;751990;184;815076;-73
2021/05/03 11:37:40;;;;;;;5.20;4.20;;;;;;;;;;742396;185;911885;-75
2021/05/03 11:40:17;;;;;;;5.80;4.07;;;;;;;;;;742890;185;921169;-74
2021/05/03 11:42:57;;;;;;;5.37;4.47;;;;;;;;;;741813;186;917536;-75
2021/05/03 11:45:05;;;;;;;4.57;4.03;;;;;;;;;;746431;186;915976;-74
2021/05/03 11:47:30;;;;;;;6.07;4.37;;;;;;;;;;742483;186;912125;-72
2021/05/03 11:49:58;;;;;;;8.87;4.80;;;;;;;;;;745409;185;914413;-76
2021/05/03 11:52:33;;;;;;;6.33;4.57;;;;;;;;;;736480;188;2064750;-75
2021/05/03 11:55:04;;;;;;;4.70;3.63;;;;;;;;;;747464;185;816557;-74
2021/05/03 11:57:31;;;;;;;5.20;3.93;;;;;;;;;;750722;187;634605;-73
2021/05/03 11:59:58;;;;;;;4.97;4.33;;;;;;;;;;743325;184;918367;-71
2021/05/03 12:02:24;;;;;;;7.03;4.40;;;;;;;;;;747081;185;919557;-72
2021/05/03 12:04:49;;;;;;;5.40;4.10;;;;;;;;;;749837;186;918524;-74
2021/05/03 12:07:15;;;;;;;7.60;4.60;;;;;;;;;;745834;186;1290961;-73
2021/05/03 12:09:41;;;;;;;7.33;4.63;;;;;;;;;;743788;186;982458;-73
2021/05/03 12:12:07;;;;;;;8.13;5.30;;;;;;;;;;748962;186;918723;-71
2021/05/03 12:14:39;;;;;;;7.63;4.30;;;;;;;;;;743331;185;918237;-72
2021/05/03 12:17:11;;;;;;;6.40;4.93;;;;;;;;;;743574;186;919910;-74
2021/05/03 12:19:38;;;;;;;7.47;4.83;;;;;;;;;;744143;185;923718;-73
2021/05/03 12:22:04;;;;;;;7.17;4.87;;;;;;;;;;749449;186;915531;-73
2021/05/03 12:24:30;;;;;;;6.27;5.30;;;;;;;;;;741988;185;914294;-74
2021/05/03 12:26:56;;;;;;;5.30;4.30;;;;;;;;;;743397;186;1007442;-74
2021/05/03 12:29:22;;;;;;;6.60;5.30;;;;;;;;;;742014;186;916345;-73
2021/05/03 12:31:48;;;;;;;4.33;3.53;;;;;;;;;;740148;188;914774;-75
2021/05/03 12:34:20;;;;;;;5.57;3.60;;;;;;;;;;743539;186;919236;-73
2021/05/03 12:36:40;;;;;;;5.70;4.23;;;;;;;;;;745713;185;919385;-74
2021/05/03 12:39:08;;;;;;;6.87;5.27;;;;;;;;;;748872;185;918991;-76
2021/05/03 12:41:34;;;;;;;5.87;3.63;;;;;;;;;;744227;185;918217;-73
2021/05/03 12:44:03;;;;;;;5.17;4.10;;;;;;;;;;744349;185;920166;-74
2021/05/03 12:46:32;;;;;;;5.00;4.00;;;;;;;;;;747113;187;874027;-74
2021/05/03 12:49:01;;;;;;;8.97;3.83;;;;;;;;;;749595;185;891234;-75
2021/05/03 12:51:34;;;;;;;6.60;4.23;;;;;;;;;;743883;186;919038;-73
2021/05/03 12:56:37;;;;;;;5.10;3.70;;;;;;;;;;743157;187;917997;-72
2021/05/03 12:59:02;;;;;;;5.67;4.40;;;;;;;;;;758053;183;818248;-73
2021/05/03 13:01:33;;;;;;;4.30;3.10;;;;;;;;;;745636;185;700548;-74
2021/05/03 13:04:25;;;;;;;4.00;3.40;;;;;;;;;;748706;185;626023;-73
2021/05/03 13:06:51;;;;;;;7.45;4.07;;;;;;;;;;742579;186;1019238;-73
2021/05/03 13:09:30;;;;;;;6.60;3.90;;;;;;;;;;745343;185;919436;-72
2021/05/03 13:29:46;;;;;;;8.97;4.23;;;;;;;;;;750527;185;918785;-73
2021/05/03 13:32:13;;;;;;;5.97;4.20;;;;;;;;;;742021;185;918708;-72
2021/05/03 13:34:39;;;;;;;5.67;4.03;;;;;;;;;;745263;185;918668;-73
2021/05/03 13:37:05;;;;;;;5.47;3.78;;;;;;;;;;741590;186;921438;-73
2021/05/03 13:39:31;;;;;;;6.50;5.37;;;;;;;;;;749519;187;919748;-74
2021/05/03 13:41:57;;;;;;;5.93;4.57;;;;;;;;;;745171;185;919285;-73
2021/05/03 13:44:23;;;;;;;6.57;4.73;;;;;;;;;;744738;185;919287;-73
2021/05/03 13:46:50;;;;;;;6.17;4.07;;;;;;;;;;747190;185;919041;-74
2021/05/03 13:49:16;;;;;;;6.20;4.10;;;;;;;;;;746636;185;816376;-73
2021/05/03 13:51:43;;;;;;;6.23;4.47;;;;;;;;;;746041;187;815869;-73
2021/05/03 13:54:08;;;;;;;8.73;4.60;;;;;;;;;;742277;186;919400;-74
2021/05/03 13:56:34;;;;;;;4.97;4.20;;;;;;;;;;745929;185;895510;-70
2021/05/03 13:59:00;;;;;;;4.50;3.70;;;;;;;;;;741023;186;918820;-72
2021/05/03 14:01:26;;;;;;;7.93;5.60;;;;;;;;;;742386;187;919089;-72
2021/05/03 14:03:52;;;;;;;5.10;3.60;;;;;;;;;;748321;187;849565;-72
2021/05/03 14:06:18;;;;;;;5.97;4.10;;;;;;;;;;744649;185;922559;-71
2021/05/03 14:08:43;;;;;;;4.67;3.40;;;;;;;;;;741868;185;1025329;-73
2021/05/03 14:11:09;;;;;;;6.50;4.30;;;;;;;;;;748880;187;918203;-74
2021/05/03 14:13:35;;;;;;;5.35;4.15;;;;;;;;;;742687;185;919412;-72
2021/05/03 14:16:01;;;;;;;8.00;5.10;;;;;;;;;;745865;186;919151;-73
2021/05/03 14:18:27;;;;;;;5.67;4.30;;;;;;;;;;747290;186;917369;-72
2021/05/03 14:20:53;;;;;;;5.70;4.20;;;;;;;;;;742578;187;919570;-72
2021/05/03 14:23:19;;;;;;;10.73;5.00;;;;;;;;;;742420;185;918991;-72
2021/05/03 14:25:48;;;;;;;7.57;3.70;;;;;;;;;;744412;186;918653;-72
2021/05/03 14:28:17;;;;;;;4.83;3.50;;;;;;;;;;753314;186;917217;-74
2021/05/03 14:30:46;;;;;;;4.40;3.43;;;;;;;;;;745834;184;1081328;-73
2021/05/03 14:33:15;;;;;;;5.87;3.90;;;;;;;;;;743863;185;1330087;-72
2021/05/03 14:35:36;;;;;;;5.50;3.73;;;;;;;;;;748481;185;995188;-72
2021/05/03 14:38:02;;;;;;;5.07;3.37;;;;;;;;;;745250;185;918861;-72
2021/05/03 14:40:28;;;;;;;7.10;4.40;;;;;;;;;;745540;186;819906;-72
2021/05/03 14:42:57;;;;;;;6.03;3.30;;;;;;;;;;748047;185;630313;-75